Time;durP1;ratioP1;P1;durP2;ratioP2;P2;SDS_P1;SDS_P2;PMS_P1;PMS_P2;Temp;Humidity;BMP_temperature;BMP_pressure;BME280_temperature;BME280_humidity;BME280_pressure;Samples;Min_cycle;Max_cycle;Signal;HPM_P1;HPM_P2
2022/03/28 00:01:18;;;;;;;51.08;6.63;;;6.30;99.90;;;;;;5054805;28;20036;-64
2022/03/28 00:03:44;;;;;;;46.90;6.28;;;6.20;99.90;;;;;;5054509;28;20053;-64
2022/03/28 00:06:10;;;;;;;75.40;7.70;;;6.30;99.90;;;;;;5054432;28;20488;-64
2022/03/28 00:08:37;;;;;;;22.73;4.53;;;6.30;99.90;;;;;;5052069;28;20045;-64
2022/03/28 00:11:06;;;;;;;33.85;5.72;;;6.30;99.90;;;;;;5054408;28;20116;-64
2022/03/28 00:13:33;;;;;;;27.52;5.15;;;6.30;99.90;;;;;;5055556;28;20037;-64
2022/03/28 00:15:59;;;;;;;19.42;4.80;;;6.30;99.90;;;;;;5055611;28;20090;-64
2022/03/28 00:18:25;;;;;;;17.95;4.43;;;6.30;99.90;;;;;;5037804;28;20091;-64
2022/03/28 00:20:53;;;;;;;32.95;6.05;;;6.20;99.90;;;;;;5054155;28;20485;-65
2022/03/28 00:23:20;;;;;;;35.47;6.43;;;6.20;99.90;;;;;;5054264;28;20040;-64
2022/03/28 00:25:46;;;;;;;56.42;8.40;;;6.20;99.90;;;;;;5055120;28;20520;-64
2022/03/28 00:28:13;;;;;;;36.22;5.38;;;6.20;99.90;;;;;;5055543;28;20443;-64
2022/03/28 00:30:40;;;;;;;33.28;5.90;;;6.30;99.90;;;;;;5053935;28;20126;-64
2022/03/28 00:33:06;;;;;;;59.95;8.35;;;6.30;99.90;;;;;;5053863;28;20049;-64
2022/03/28 00:35:32;;;;;;;69.40;8.85;;;6.30;99.90;;;;;;5087673;28;20047;-64
2022/03/28 00:37:58;;;;;;;52.78;8.27;;;6.30;99.90;;;;;;5051360;28;20041;-64
2022/03/28 00:40:27;;;;;;;75.80;9.48;;;6.30;99.90;;;;;;5054919;28;20052;-64
2022/03/28 00:42:54;;;;;;;68.63;10.30;;;6.30;99.90;;;;;;5087535;28;20390;-64
2022/03/28 00:45:21;;;;;;;23.40;6.97;;;6.30;99.90;;;;;;5055112;28;20033;-64
2022/03/28 00:47:46;;;;;;;67.30;10.32;;;6.30;99.90;;;;;;5035669;28;20111;-63
2022/03/28 00:50:12;;;;;;;35.80;8.70;;;6.30;99.90;;;;;;5054877;28;20036;-64
2022/03/28 00:52:39;;;;;;;40.97;9.05;;;6.30;99.90;;;;;;5054790;28;20124;-64
2022/03/28 00:55:07;;;;;;;46.65;8.30;;;6.30;99.90;;;;;;5087219;28;20067;-64
2022/03/28 00:57:33;;;;;;;31.80;8.45;;;6.20;99.90;;;;;;5054594;28;20044;-64
2022/03/28 01:00:00;;;;;;;59.30;10.40;;;6.30;99.90;;;;;;5053436;28;20519;-64
2022/03/28 01:02:27;;;;;;;53.25;9.93;;;6.20;99.90;;;;;;5053220;28;20504;-64
2022/03/28 01:04:52;;;;;;;90.43;14.48;;;6.20;99.90;;;;;;5086989;28;20041;-64
2022/03/28 01:07:19;;;;;;;56.30;11.38;;;6.20;99.90;;;;;;5051092;28;20033;-64
2022/03/28 01:09:46;;;;;;;57.72;12.02;;;6.20;99.90;;;;;;5054680;28;20051;-64
2022/03/28 01:12:12;;;;;;;75.35;13.70;;;6.20;99.90;;;;;;5053073;28;20048;-64
2022/03/28 01:14:41;;;;;;;77.15;13.43;;;6.20;99.90;;;;;;5053117;28;20040;-64
2022/03/28 01:19:52;;;;;;;83.82;13.65;;;6.20;99.90;;;;;;5054386;28;20497;-64
2022/03/28 01:22:18;;;;;;;71.82;13.40;;;6.20;99.90;;;;;;5054417;28;20118;-64
2022/03/28 01:24:44;;;;;;;90.30;14.70;;;6.20;99.90;;;;;;5054223;28;20406;-64
2022/03/28 01:27:10;;;;;;;48.92;11.15;;;6.20;99.90;;;;;;5052785;28;20048;-64
2022/03/28 01:29:36;;;;;;;60.67;13.32;;;6.20;99.90;;;;;;5052795;28;20049;-64
2022/03/28 01:32:02;;;;;;;94.68;13.68;;;6.20;99.90;;;;;;5053007;28;20037;-65
2022/03/28 01:34:28;;;;;;;46.40;11.38;;;6.20;99.90;;;;;;5052925;28;20059;-64
2022/03/28 01:36:54;;;;;;;41.17;8.75;;;6.20;99.90;;;;;;5051403;28;20571;-64
2022/03/28 01:39:20;;;;;;;183.52;22.40;;;6.20;99.90;;;;;;5052855;28;20047;-64
2022/03/28 01:41:46;;;;;;;64.88;14.30;;;6.10;99.90;;;;;;5052629;28;20116;-65
2022/03/28 01:44:13;;;;;;;94.15;17.50;;;6.10;99.90;;;;;;5053578;28;20103;-65
2022/03/28 01:46:40;;;;;;;48.45;12.73;;;6.10;99.90;;;;;;5052442;28;20041;-65
2022/03/28 01:49:06;;;;;;;75.07;14.35;;;6.10;99.90;;;;;;5053644;28;20047;-64
2022/03/28 01:51:32;;;;;;;169.63;22.85;;;6.10;99.90;;;;;;5053558;28;20537;-64
2022/03/28 01:54:01;;;;;;;67.60;16.00;;;6.10;99.90;;;;;;5052215;28;20041;-64
2022/03/28 01:56:30;;;;;;;71.55;13.10;;;6.10;99.90;;;;;;5052398;28;20056;-64
2022/03/28 01:58:56;;;;;;;129.60;18.10;;;6.10;99.90;;;;;;5051701;28;20100;-64
2022/03/28 02:01:22;;;;;;;185.82;23.98;;;6.10;99.90;;;;;;5052278;28;20103;-64
2022/03/28 02:03:47;;;;;;;125.45;19.77;;;6.10;99.90;;;;;;5052067;28;20056;-65
2022/03/28 02:06:13;;;;;;;158.20;21.77;;;6.20;99.90;;;;;;5052395;28;20044;-65
2022/03/28 02:08:39;;;;;;;50.78;12.02;;;6.20;99.90;;;;;;5050006;28;20039;-64
2022/03/28 02:11:05;;;;;;;198.45;22.63;;;6.20;99.90;;;;;;5053414;28;20102;-65
2022/03/28 02:13:30;;;;;;;115.50;17.05;;;6.20;99.90;;;;;;5053157;28;20033;-64
2022/03/28 02:15:56;;;;;;;109.47;17.58;;;6.20;99.90;;;;;;5068558;28;20041;-64
2022/03/28 02:18:22;;;;;;;159.95;23.20;;;6.20;99.90;;;;;;5053147;28;20040;-64
2022/03/28 02:20:48;;;;;;;80.65;17.75;;;6.10;99.90;;;;;;5051891;28;20048;-64
2022/03/28 02:23:13;;;;;;;89.30;16.05;;;6.20;99.90;;;;;;5085544;28;20076;-65
2022/03/28 02:25:41;;;;;;;116.25;20.17;;;6.20;99.90;;;;;;5052883;28;20131;-64
2022/03/28 02:28:08;;;;;;;57.45;12.88;;;6.20;99.90;;;;;;5051755;28;20052;-65
2022/03/28 02:30:34;;;;;;;123.75;17.60;;;6.20;99.90;;;;;;5085356;28;20052;-64
2022/03/28 02:33:00;;;;;;;130.15;18.85;;;6.20;99.90;;;;;;5052830;28;20041;-65
2022/03/28 02:35:26;;;;;;;55.75;14.45;;;6.20;99.90;;;;;;5068397;28;20141;-64
2022/03/28 02:37:51;;;;;;;134.38;21.52;;;6.20;99.90;;;;;;5082888;28;20041;-64
2022/03/28 02:40:17;;;;;;;95.22;17.15;;;6.20;99.90;;;;;;5052773;28;20040;-65
2022/03/28 02:42:44;;;;;;;100.75;19.60;;;6.20;99.90;;;;;;5052873;28;20047;-65
2022/03/28 02:45:10;;;;;;;113.00;19.65;;;6.10;99.90;;;;;;5051490;28;20041;-64
2022/03/28 02:47:36;;;;;;;128.57;19.83;;;6.10;99.90;;;;;;5051495;28;20060;-64
2022/03/28 02:50:03;;;;;;;113.93;18.73;;;6.10;99.90;;;;;;5052588;28;20043;-64
2022/03/28 02:52:29;;;;;;;65.25;14.40;;;6.20;99.90;;;;;;5052911;28;20116;-65
2022/03/28 02:54:55;;;;;;;94.30;16.80;;;6.10;99.90;;;;;;5085238;28;20468;-65
2022/03/28 02:57:21;;;;;;;86.22;16.42;;;6.20;99.90;;;;;;5034698;28;20095;-64
2022/03/28 02:59:47;;;;;;;83.53;16.90;;;6.20;99.90;;;;;;5051544;28;20040;-65
2022/03/28 03:02:13;;;;;;;63.53;14.15;;;6.20;99.90;;;;;;5085048;28;20393;-65
2022/03/28 03:04:39;;;;;;;92.18;14.80;;;6.10;99.90;;;;;;5068221;28;20457;-65
2022/03/28 03:07:05;;;;;;;134.60;19.92;;;6.10;99.90;;;;;;5082755;28;20080;-65
2022/03/28 03:09:30;;;;;;;71.07;13.60;;;6.10;99.90;;;;;;5051273;28;20041;-64
2022/03/28 03:11:56;;;;;;;47.78;11.50;;;6.00;99.90;;;;;;5054518;28;20248;-64
2022/03/28 03:14:23;;;;;;;99.30;15.68;;;6.00;99.90;;;;;;5036694;28;20044;-65
2022/03/28 03:16:50;;;;;;;73.60;16.27;;;6.00;99.90;;;;;;5035175;28;20057;-65
2022/03/28 03:19:16;;;;;;;48.83;11.25;;;6.00;99.90;;;;;;5068907;28;20770;-64
2022/03/28 03:21:42;;;;;;;110.25;19.40;;;6.00;99.90;;;;;;5035335;28;20077;-65
2022/03/28 03:24:08;;;;;;;102.63;18.50;;;6.00;99.90;;;;;;5051701;28;20053;-65
2022/03/28 03:26:34;;;;;;;61.72;13.05;;;6.00;99.90;;;;;;5035537;28;20049;-65
2022/03/28 03:29:00;;;;;;;77.07;16.63;;;6.00;99.90;;;;;;5051715;28;20068;-65
2022/03/28 03:31:26;;;;;;;58.50;12.88;;;6.00;99.90;;;;;;5035075;28;20041;-65
2022/03/28 03:33:52;;;;;;;63.75;14.30;;;6.10;99.90;;;;;;5034981;28;20053;-65
2022/03/28 03:36:18;;;;;;;40.28;11.50;;;6.10;99.90;;;;;;5035247;28;20048;-65
2022/03/28 03:38:44;;;;;;;79.15;16.48;;;6.00;99.90;;;;;;5066053;28;20121;-65
2022/03/28 03:41:10;;;;;;;81.25;16.08;;;6.00;99.90;;;;;;5068523;28;20116;-65
2022/03/28 03:43:36;;;;;;;34.38;11.35;;;6.00;99.90;;;;;;5034998;28;20095;-64
2022/03/28 03:46:02;;;;;;;75.70;15.73;;;6.00;99.90;;;;;;5034718;28;20045;-65
2022/03/28 03:48:29;;;;;;;51.28;12.10;;;6.00;99.90;;;;;;5068264;28;20073;-65
2022/03/28 03:50:55;;;;;;;80.20;15.10;;;6.00;99.90;;;;;;5034629;28;20045;-65
2022/03/28 03:53:21;;;;;;;49.35;13.23;;;6.10;99.90;;;;;;5034916;28;20033;-65
2022/03/28 03:55:48;;;;;;;74.07;16.38;;;6.10;99.90;;;;;;5034734;28;20045;-65
2022/03/28 03:58:14;;;;;;;36.40;12.13;;;6.10;99.90;;;;;;5051338;28;20064;-65
2022/03/28 04:00:40;;;;;;;28.40;10.15;;;6.10;99.90;;;;;;5035921;28;20037;-65
2022/03/28 04:03:06;;;;;;;66.28;16.02;;;6.10;99.90;;;;;;5036056;28;20041;-65
2022/03/28 04:05:32;;;;;;;55.85;15.48;;;6.10;99.90;;;;;;5034624;28;20593;-65
2022/03/28 04:07:59;;;;;;;71.68;15.55;;;6.10;99.90;;;;;;5032433;28;20110;-64
2022/03/28 04:10:26;;;;;;;60.30;15.85;;;6.00;99.90;;;;;;5034436;28;20498;-65
2022/03/28 04:12:52;;;;;;;93.90;16.52;;;6.00;99.90;;;;;;5075583;28;20392;-65
2022/03/28 04:15:18;;;;;;;38.78;11.52;;;6.00;99.90;;;;;;5087829;28;20089;-65
2022/03/28 04:17:45;;;;;;;99.15;15.55;;;6.00;99.90;;;;;;5054521;28;20404;-64
2022/03/28 04:20:14;;;;;;;88.40;18.45;;;6.00;99.90;;;;;;5087923;28;20044;-65
2022/03/28 04:22:41;;;;;;;72.95;13.88;;;6.00;99.90;;;;;;5087448;28;20040;-65
2022/03/28 04:25:08;;;;;;;73.93;16.30;;;5.90;99.90;;;;;;5070845;28;20136;-64
2022/03/28 04:27:35;;;;;;;38.33;10.73;;;5.90;99.90;;;;;;5055429;28;20084;-65
2022/03/28 04:30:04;;;;;;;57.15;13.55;;;5.90;99.90;;;;;;5056375;28;20045;-65
2022/03/28 04:32:29;;;;;;;61.50;13.93;;;5.90;99.90;;;;;;5056925;28;20382;-65
2022/03/28 04:34:55;;;;;;;39.50;12.73;;;5.90;99.90;;;;;;5070633;28;20045;-65
2022/03/28 04:37:21;;;;;;;52.00;12.52;;;5.90;99.90;;;;;;5052982;28;20052;-65
2022/03/28 04:39:47;;;;;;;59.35;14.20;;;5.80;99.90;;;;;;5055027;28;20049;-65
2022/03/28 04:42:13;;;;;;;79.68;15.15;;;5.80;99.90;;;;;;5087573;28;20041;-64
2022/03/28 04:44:38;;;;;;;52.25;12.70;;;5.80;99.90;;;;;;5037001;28;20069;-65
2022/03/28 04:47:04;;;;;;;145.45;18.08;;;5.80;99.90;;;;;;5055243;28;20044;-65
2022/03/28 04:49:30;;;;;;;152.55;20.48;;;5.90;99.90;;;;;;5054799;28;20444;-65
2022/03/28 04:51:56;;;;;;;45.50;11.95;;;5.80;99.90;;;;;;5087227;28;20049;-65
2022/03/28 04:54:22;;;;;;;65.20;12.77;;;5.80;99.90;;;;;;5054934;28;20041;-64
2022/03/28 04:56:47;;;;;;;147.70;19.38;;;5.80;99.90;;;;;;5053286;28;20139;-65
2022/03/28 04:59:13;;;;;;;115.57;17.08;;;5.80;99.90;;;;;;5086972;28;20099;-65
2022/03/28 05:01:40;;;;;;;105.38;16.33;;;5.90;99.90;;;;;;5053561;28;20086;-65
2022/03/28 05:04:06;;;;;;;88.85;15.35;;;5.80;99.90;;;;;;5053428;28;20041;-65
2022/03/28 05:06:32;;;;;;;98.22;17.13;;;5.80;99.90;;;;;;5053518;28;20033;-65
2022/03/28 05:08:58;;;;;;;94.07;17.60;;;5.80;99.90;;;;;;5051259;28;20124;-65
2022/03/28 05:11:23;;;;;;;59.90;16.98;;;5.80;99.90;;;;;;5053084;28;20510;-65
2022/03/28 05:13:50;;;;;;;197.52;26.65;;;5.80;99.90;;;;;;5053164;28;20036;-65
2022/03/28 05:16:16;;;;;;;102.65;18.33;;;5.80;99.90;;;;;;5053010;28;20049;-65
2022/03/28 05:18:43;;;;;;;50.55;13.60;;;5.80;99.90;;;;;;5054309;28;20052;-65
2022/03/28 05:21:09;;;;;;;93.05;19.58;;;5.80;99.90;;;;;;5053146;28;20401;-64
2022/03/28 05:23:35;;;;;;;73.50;16.83;;;5.80;99.90;;;;;;5053356;28;20044;-65
2022/03/28 05:26:02;;;;;;;85.20;14.18;;;5.80;99.90;;;;;;5053981;28;20582;-65
2022/03/28 05:28:28;;;;;;;72.63;12.73;;;5.80;99.90;;;;;;5054051;28;20051;-65
2022/03/28 05:30:57;;;;;;;114.78;17.00;;;5.80;99.90;;;;;;5054105;28;20037;-63
2022/03/28 05:33:23;;;;;;;65.40;12.93;;;5.70;99.90;;;;;;5052323;28;20041;-63
2022/03/28 05:35:50;;;;;;;86.05;16.77;;;5.60;99.90;;;;;;5053841;28;20432;-64
2022/03/28 05:38:18;;;;;;;75.63;15.13;;;5.60;99.90;;;;;;5050340;28;20079;-65
2022/03/28 05:40:43;;;;;;;85.13;16.17;;;5.50;99.90;;;;;;5053743;28;20048;-66
2022/03/28 05:43:09;;;;;;;122.38;21.63;;;5.60;99.90;;;;;;5052832;28;20041;-64
2022/03/28 05:45:36;;;;;;;108.97;17.77;;;5.50;99.90;;;;;;5052563;28;20044;-66
2022/03/28 05:48:03;;;;;;;82.65;16.52;;;5.50;99.90;;;;;;5052721;28;20575;-63
2022/03/28 05:50:29;;;;;;;64.78;15.52;;;5.60;99.90;;;;;;5049330;28;20045;-66
2022/03/28 05:52:55;;;;;;;41.20;13.02;;;5.50;99.90;;;;;;5052573;28;20043;-65
2022/03/28 05:55:21;;;;;;;113.78;21.40;;;5.50;99.90;;;;;;5053549;28;20040;-64
2022/03/28 05:57:47;;;;;;;68.40;17.35;;;5.50;99.90;;;;;;5052381;28;20086;-65
2022/03/28 06:00:14;;;;;;;58.03;17.05;;;5.50;99.90;;;;;;5053633;28;20048;-65
2022/03/28 06:02:42;;;;;;;60.30;16.80;;;5.60;99.90;;;;;;5035841;28;20048;-64
2022/03/28 06:05:08;;;;;;;122.80;22.10;;;5.60;99.90;;;;;;5052106;28;20052;-64
2022/03/28 06:07:35;;;;;;;47.67;17.02;;;5.60;99.90;;;;;;5049666;28;20044;-65
2022/03/28 06:10:02;;;;;;;68.25;17.60;;;5.60;99.90;;;;;;5053317;28;20041;-65
2022/03/28 06:12:27;;;;;;;46.33;15.80;;;5.60;99.90;;;;;;5053363;28;20401;-65
2022/03/28 06:14:53;;;;;;;54.78;16.08;;;5.60;99.90;;;;;;5085767;28;20055;-65
2022/03/28 06:17:26;;;;;;;82.80;20.17;;;5.70;99.90;;;;;;5052510;28;20120;-65
2022/03/28 06:19:54;;;;;;;59.70;19.65;;;5.70;99.90;;;;;;5052697;28;20049;-65
2022/03/28 06:22:20;;;;;;;50.53;17.25;;;5.70;99.90;;;;;;5051795;28;20116;-65
2022/03/28 06:24:47;;;;;;;42.47;16.85;;;5.70;99.90;;;;;;5053059;28;20120;-65
2022/03/28 06:27:13;;;;;;;53.75;18.17;;;5.70;99.90;;;;;;5052992;28;20061;-65
2022/03/28 06:29:39;;;;;;;43.03;17.73;;;5.70;99.90;;;;;;5068454;28;20040;-65
2022/03/28 06:32:05;;;;;;;95.40;18.92;;;5.70;99.90;;;;;;5068820;28;20075;-65
2022/03/28 06:34:31;;;;;;;48.28;15.95;;;5.70;99.90;;;;;;5058287;28;20615;-65
2022/03/28 06:36:57;;;;;;;86.18;23.25;;;5.70;99.90;;;;;;5052252;28;20151;-66
2022/03/28 06:39:23;;;;;;;31.27;16.00;;;5.80;99.90;;;;;;5050069;28;20045;-64
2022/03/28 06:41:50;;;;;;;53.45;15.77;;;5.80;99.90;;;;;;5051597;28;20091;-65
2022/03/28 06:44:17;;;;;;;27.23;12.88;;;5.80;99.90;;;;;;5085041;28;20120;-65
2022/03/28 06:46:44;;;;;;;31.83;13.90;;;5.80;99.90;;;;;;5085084;28;20051;-64
2022/03/28 06:49:10;;;;;;;29.77;13.38;;;5.80;99.90;;;;;;5085104;28;20040;-65
2022/03/28 06:51:36;;;;;;;28.80;12.80;;;5.80;99.90;;;;;;5054270;28;20132;-64
2022/03/28 06:54:04;;;;;;;22.13;11.02;;;5.80;99.90;;;;;;5083089;28;20461;-65
2022/03/28 06:56:30;;;;;;;36.47;12.27;;;5.80;99.90;;;;;;5051134;28;20041;-65
2022/03/28 06:58:56;;;;;;;31.80;13.18;;;5.80;99.90;;;;;;5052737;28;20544;-65
2022/03/28 07:01:22;;;;;;;24.95;11.27;;;5.80;99.90;;;;;;5052556;28;20125;-65
2022/03/28 07:03:48;;;;;;;33.42;13.27;;;5.80;99.90;;;;;;5035044;28;20076;-65
2022/03/28 07:06:20;;;;;;;26.83;13.63;;;5.80;99.90;;;;;;5051181;28;20044;-65
2022/03/28 07:08:45;;;;;;;27.10;14.68;;;5.80;99.90;;;;;;5049084;28;20508;-65
2022/03/28 07:11:11;;;;;;;34.15;15.63;;;5.90;99.90;;;;;;5051380;28;20048;-66
2022/03/28 07:13:37;;;;;;;23.70;11.80;;;5.90;99.90;;;;;;5031925;28;20121;-66
2022/03/28 07:16:03;;;;;;;22.85;12.02;;;6.00;99.90;;;;;;5084882;28;20063;-63
2022/03/28 07:18:29;;;;;;;25.65;13.52;;;6.00;99.90;;;;;;5052396;28;20466;-66
2022/03/28 07:20:55;;;;;;;18.45;10.10;;;6.10;99.90;;;;;;5051541;28;20048;-63
2022/03/28 07:23:22;;;;;;;16.15;8.45;;;6.10;99.90;;;;;;5051106;28;20422;-63
2022/03/28 07:25:48;;;;;;;16.52;9.57;;;6.00;99.90;;;;;;5052321;28;20053;-63
2022/03/28 07:28:17;;;;;;;19.98;11.05;;;6.00;99.90;;;;;;5051648;28;20144;-64
2022/03/28 07:30:43;;;;;;;13.85;7.68;;;6.00;99.90;;;;;;5051248;28;20164;-64
2022/03/28 07:33:09;;;;;;;15.98;9.10;;;6.00;99.90;;;;;;5050902;28;20041;-63
2022/03/28 07:35:36;;;;;;;16.98;9.80;;;6.00;99.90;;;;;;5050926;28;20044;-63
2022/03/28 07:38:08;;;;;;;15.93;9.18;;;6.10;99.90;;;;;;5049960;28;20106;-63
2022/03/28 07:40:38;;;;;;;18.08;10.00;;;6.10;99.90;;;;;;5052483;28;20045;-64
2022/03/28 07:43:04;;;;;;;;;;;6.10;99.90;;;;;;5051507;28;20489;-64
2022/03/28 07:45:30;;;;;;;16.80;9.35;;;6.10;99.90;;;;;;5048021;28;19917;-63
2022/03/28 07:47:56;;;;;;;17.00;9.70;;;6.20;99.90;;;;;;5050809;28;20052;-63
2022/03/28 07:50:22;;;;;;;15.13;8.20;;;6.20;99.90;;;;;;5050973;28;20037;-63
2022/03/28 07:52:50;;;;;;;14.98;8.60;;;6.20;99.90;;;;;;5052253;28;20073;-63
2022/03/28 07:55:17;;;;;;;17.05;8.32;;;6.30;99.90;;;;;;5051126;28;20084;-63
2022/03/28 07:57:43;;;;;;;17.08;9.70;;;6.20;99.90;;;;;;5053208;28;20489;-63
2022/03/28 08:00:13;;;;;;;15.93;8.98;;;6.20;99.90;;;;;;5038042;28;20098;-63
2022/03/28 08:02:39;;;;;;;17.20;9.43;;;6.30;99.90;;;;;;5054339;28;20120;-63
2022/03/28 08:05:07;;;;;;;17.23;9.18;;;6.30;99.90;;;;;;5055961;28;20662;-63
2022/03/28 08:07:34;;;;;;;15.35;9.20;;;6.40;99.90;;;;;;5052324;28;20408;-64
2022/03/28 08:10:00;;;;;;;17.98;9.48;;;6.50;99.90;;;;;;5055788;28;20033;-64
2022/03/28 08:12:26;;;;;;;15.38;7.78;;;6.50;99.90;;;;;;5054152;28;20037;-64
2022/03/28 08:14:52;;;;;;;16.05;8.65;;;6.60;99.90;;;;;;5054621;28;20118;-64
2022/03/28 08:17:19;;;;;;;15.20;9.18;;;6.60;99.90;;;;;;5087882;28;20443;-64
2022/03/28 08:19:45;;;;;;;15.18;8.32;;;6.60;99.90;;;;;;5054584;28;20382;-64
2022/03/28 08:22:11;;;;;;;14.65;8.25;;;6.70;99.90;;;;;;5088092;28;20041;-64
2022/03/28 08:24:37;;;;;;;15.45;8.48;;;6.70;99.90;;;;;;5054344;28;20049;-64
2022/03/28 08:27:03;;;;;;;14.48;7.68;;;6.60;99.90;;;;;;5070964;28;20413;-64
2022/03/28 08:29:29;;;;;;;10.85;5.60;;;6.50;99.90;;;;;;5037365;28;20037;-64
2022/03/28 08:31:55;;;;;;;12.40;7.03;;;6.50;99.90;;;;;;5037448;28;20045;-64
2022/03/28 08:34:20;;;;;;;10.80;6.45;;;6.60;99.90;;;;;;5054357;28;20052;-64
2022/03/28 08:36:46;;;;;;;11.85;7.22;;;6.60;99.90;;;;;;5055176;28;20037;-64
2022/03/28 08:39:12;;;;;;;15.52;8.25;;;6.60;99.90;;;;;;5051861;28;20045;-64
2022/03/28 08:41:39;;;;;;;12.93;7.18;;;6.70;99.90;;;;;;5087555;28;20041;-64
2022/03/28 08:44:05;;;;;;;13.65;7.43;;;6.70;99.90;;;;;;5054068;28;20049;-64
2022/03/28 08:46:31;;;;;;;13.13;6.65;;;6.80;99.90;;;;;;5053711;28;20059;-64
2022/03/28 08:48:58;;;;;;;11.15;6.40;;;6.80;99.90;;;;;;5055118;28;20041;-64
2022/03/28 08:51:25;;;;;;;13.07;6.63;;;6.90;99.90;;;;;;5054049;28;20128;-64
2022/03/28 08:53:51;;;;;;;9.10;5.93;;;7.00;99.90;;;;;;5054991;28;20044;-64
2022/03/28 08:56:17;;;;;;;10.35;5.88;;;7.00;99.90;;;;;;5053730;28;20040;-64
2022/03/28 08:58:43;;;;;;;8.98;5.15;;;7.20;99.90;;;;;;5070394;28;20101;-64
2022/03/28 09:01:11;;;;;;;9.85;5.75;;;7.20;99.90;;;;;;5053496;28;20041;-64
2022/03/28 09:03:42;;;;;;;10.18;5.40;;;7.30;99.90;;;;;;5086954;28;20126;-64
2022/03/28 09:06:37;;;;;;;10.73;5.10;;;7.40;99.90;;;;;;5036911;28;20037;-64
2022/03/28 09:09:10;;;;;;;7.13;4.38;;;7.50;99.90;;;;;;5083692;28;20457;-64
2022/03/28 09:11:36;;;;;;;11.23;6.30;;;7.50;99.90;;;;;;5069835;28;20048;-64
2022/03/28 09:14:02;;;;;;;11.18;5.97;;;7.50;99.90;;;;;;5054597;28;20044;-64
2022/03/28 09:16:33;;;;;;;10.85;5.63;;;7.40;99.90;;;;;;5054440;28;20049;-64
2022/03/28 09:18:59;;;;;;;10.85;6.15;;;7.50;99.90;;;;;;5036742;28;20428;-64
2022/03/28 09:21:25;;;;;;;10.48;6.15;;;7.60;99.90;;;;;;5054524;28;20041;-64
2022/03/28 09:23:52;;;;;;;12.18;6.07;;;7.60;99.90;;;;;;5036287;28;20097;-64
2022/03/28 09:26:20;;;;;;;12.57;6.20;;;7.70;99.90;;;;;;5054219;28;20056;-64
2022/03/28 09:28:50;;;;;;;9.13;5.85;;;7.80;99.90;;;;;;5050835;28;20115;-64
2022/03/28 09:31:23;;;;;;;9.02;5.30;;;7.90;99.90;;;;;;5052996;28;20048;-64
2022/03/28 09:34:00;;;;;;;9.40;4.85;;;8.00;99.90;;;;;;5052914;28;20432;-64
2022/03/28 09:36:48;;;;;;;10.65;5.43;;;8.10;99.90;;;;;;5052801;28;20037;-64
2022/03/28 09:39:28;;;;;;;9.25;4.72;;;8.00;99.90;;;;;;5050697;28;20132;-64
2022/03/28 09:42:06;;;;;;;9.18;4.93;;;7.90;99.90;;;;;;5053847;28;20124;-64
2022/03/28 09:44:51;;;;;;;7.80;3.92;;;7.90;99.90;;;;;;5052875;28;20033;-64
2022/03/28 09:47:23;;;;;;;7.70;4.75;;;8.00;99.90;;;;;;5052620;28;20481;-64
2022/03/28 09:49:54;;;;;;;7.75;5.03;;;8.00;99.90;;;;;;5053848;28;20048;-64
2022/03/28 09:52:25;;;;;;;7.82;5.18;;;8.00;99.90;;;;;;5052869;28;20051;-64
2022/03/28 09:54:52;;;;;;;7.88;4.85;;;8.00;99.90;;;;;;5052615;28;20106;-64
2022/03/28 09:57:28;;;;;;;7.85;5.00;;;8.10;99.90;;;;;;5035723;28;20472;-64
2022/03/28 10:00:07;;;;;;;9.60;5.40;;;8.10;99.90;;;;;;5053840;28;20135;-64
2022/03/28 10:02:37;;;;;;;7.82;5.00;;;8.20;99.90;;;;;;5053613;28;20047;-64
2022/03/28 10:05:04;;;;;;;5.68;3.35;;;8.20;99.90;;;;;;5052374;28;20093;-64
2022/03/28 10:07:31;;;;;;;9.10;5.03;;;8.30;99.90;;;;;;5051318;28;20036;-64
2022/03/28 10:09:58;;;;;;;8.15;5.22;;;8.30;99.90;;;;;;5052014;28;20190;-64
2022/03/28 10:12:24;;;;;;;10.48;6.07;;;8.40;99.90;;;;;;5052430;28;20087;-64
2022/03/28 10:14:54;;;;;;;8.82;5.20;;;8.50;99.90;;;;;;5053529;28;20142;-65
2022/03/28 10:17:20;;;;;;;6.07;3.53;;;8.60;99.90;;;;;;5085689;28;20100;-64
2022/03/28 10:19:47;;;;;;;10.02;6.28;;;8.60;99.90;;;;;;5052424;28;20098;-64
2022/03/28 10:22:21;;;;;;;10.38;5.78;;;8.60;99.90;;;;;;5051990;28;20041;-65
2022/03/28 10:24:51;;;;;;;9.95;6.15;;;8.60;99.90;;;;;;5100249;28;20040;-64
2022/03/28 10:27:17;;;;;;;7.40;4.75;;;8.70;99.90;;;;;;5035564;28;20417;-64
2022/03/28 10:29:44;;;;;;;9.52;5.90;;;8.80;99.90;;;;;;5085606;28;20036;-67
2022/03/28 10:32:19;;;;;;;9.27;6.20;;;8.90;99.90;;;;;;5052011;28;20049;-67
2022/03/28 10:34:53;;;;;;;11.13;7.03;;;8.90;99.90;;;;;;5052030;28;20471;-67
2022/03/28 10:37:33;;;;;;;20.70;8.80;;;9.20;99.90;;;;;;5083293;28;20037;-67
2022/03/28 10:40:17;;;;;;;13.20;7.95;;;9.30;99.90;;;;;;5035028;28;20056;-67
2022/03/28 10:43:07;;;;;;;13.50;8.55;;;9.40;99.90;;;;;;5035004;28;20045;-67
2022/03/28 10:45:51;;;;;;;17.75;9.68;;;9.40;99.90;;;;;;5052850;28;20048;-65
2022/03/28 10:48:33;;;;;;;16.83;9.88;;;9.50;99.90;;;;;;5035223;28;20051;-65
2022/03/28 10:51:20;;;;;;;18.10;11.10;;;9.50;99.90;;;;;;5051807;28;20048;-65
2022/03/28 10:53:54;;;;;;;16.00;9.95;;;9.60;99.90;;;;;;5051473;28;20120;-67
2022/03/28 10:56:23;;;;;;;18.75;10.18;;;9.70;99.90;;;;;;5052813;28;20397;-67
2022/03/28 10:58:58;;;;;;;18.17;10.87;;;9.70;99.90;;;;;;5052789;28;20076;-67
2022/03/28 11:01:29;;;;;;;14.73;9.85;;;9.80;99.90;;;;;;5034629;28;20037;-65
2022/03/28 11:04:02;;;;;;;15.73;10.05;;;9.90;99.90;;;;;;5052796;28;20083;-65
2022/03/28 11:06:53;;;;;;;19.10;10.93;;;9.90;99.90;;;;;;5051586;28;20129;-65
2022/03/28 11:09:49;;;;;;;15.52;9.95;;;9.90;99.90;;;;;;5082742;28;20470;-64
2022/03/28 11:12:16;;;;;;;15.68;10.02;;;10.00;99.90;;;;;;5082454;28;20041;-64
2022/03/28 11:14:50;;;;;;;21.48;12.02;;;9.90;99.90;;;;;;5032525;28;20042;-65
2022/03/28 11:17:25;;;;;;;19.77;12.85;;;10.00;99.90;;;;;;5047938;28;20044;-65
2022/03/28 11:19:54;;;;;;;21.42;12.00;;;10.20;99.90;;;;;;5032495;28;20052;-65
2022/03/28 11:22:45;;;;;;;23.15;13.25;;;10.40;99.90;;;;;;5031323;28;20514;-65
2022/03/28 11:25:29;;;;;;;;;;;10.50;99.90;;;;;;5032812;28;20129;-65
2022/03/28 11:28:04;;;;;;;20.02;12.63;;;10.60;99.90;;;;;;5063697;28;19974;-64
2022/03/28 11:30:30;;;;;;;20.67;12.45;;;10.70;99.90;;;;;;5047257;28;20049;-64
2022/03/28 11:32:56;;;;;;;22.30;14.60;;;10.90;99.90;;;;;;5034265;28;20077;-65
2022/03/28 11:35:22;;;;;;;26.13;15.80;;;11.10;99.90;;;;;;5035451;28;20081;-64
2022/03/28 11:37:49;;;;;;;21.35;13.57;;;11.10;99.90;;;;;;5033181;28;20504;-65
2022/03/28 11:40:15;;;;;;;27.15;14.95;;;11.20;99.90;;;;;;5035747;28;20042;-65
2022/03/28 11:42:49;;;;;;;23.95;15.27;;;11.20;99.90;;;;;;5017638;28;20125;-65
2022/03/28 11:45:18;;;;;;;22.83;14.50;;;11.30;99.90;;;;;;5034054;28;20560;-65
2022/03/28 11:47:52;;;;;;;24.50;15.07;;;11.40;99.90;;;;;;5067620;28;20052;-65
2022/03/28 11:50:18;;;;;;;23.67;15.00;;;11.50;99.90;;;;;;5035122;28;20107;-64
2022/03/28 11:52:52;;;;;;;24.90;15.40;;;11.70;99.90;;;;;;5035460;28;20046;-65
2022/03/28 11:55:21;;;;;;;21.95;13.30;;;11.70;99.90;;;;;;5035044;28;20486;-64
2022/03/28 12:00:36;;;;;;;23.70;14.68;;;11.50;99.90;;;;;;5066980;28;20493;-64
2022/03/28 12:03:04;;;;;;;19.58;13.25;;;11.60;99.90;;;;;;5017769;28;20033;-64
2022/03/28 12:05:31;;;;;;;20.00;13.65;;;11.70;99.90;;;;;;5033594;28;20073;-65
2022/03/28 12:07:59;;;;;;;24.60;13.80;;;12.10;99.90;;;;;;5031545;28;20042;-64
2022/03/28 12:10:28;;;;;;;20.52;12.98;;;12.80;99.90;;;;;;5066967;28;20045;-65
2022/03/28 12:12:56;;;;;;;18.15;12.90;;;13.30;99.90;;;;;;5075039;28;20454;-65
2022/03/28 12:15:30;;;;;;;23.27;14.85;;;13.60;99.90;;;;;;5053394;28;20052;-64
2022/03/28 12:18:01;;;;;;;22.08;13.38;;;13.70;99.90;;;;;;5053434;28;20497;-64
2022/03/28 12:20:29;;;;;;;21.58;14.52;;;13.70;99.90;;;;;;5054748;28;20033;-64
2022/03/28 12:22:56;;;;;;;20.42;13.57;;;13.60;99.90;;;;;;5053697;28;20044;-65
2022/03/28 12:25:30;;;;;;;18.88;12.57;;;13.40;99.90;;;;;;5086603;28;20102;-64
2022/03/28 12:27:59;;;;;;;19.92;13.68;;;13.40;99.90;;;;;;5053664;28;20192;-64
2022/03/28 12:30:35;;;;;;;18.65;13.27;;;13.10;99.90;;;;;;5054330;28;20556;-65
2022/03/28 12:33:10;;;;;;;20.00;12.63;;;13.30;99.90;;;;;;5069847;28;20076;-64
2022/03/28 12:35:43;;;;;;;20.58;13.38;;;14.00;99.90;;;;;;5086855;28;20037;-64
2022/03/28 12:38:19;;;;;;;16.45;12.30;;;14.50;99.90;;;;;;5050570;28;20037;-64
2022/03/28 12:40:46;;;;;;;16.35;12.88;;;15.00;99.90;;;;;;5054414;28;20068;-65
2022/03/28 12:43:13;;;;;;;14.10;12.10;;;15.20;99.90;;;;;;5036433;28;20041;-64
2022/03/28 12:45:40;;;;;;;16.42;12.73;;;15.30;99.90;;;;;;5048152;28;20048;-64
2022/03/28 12:48:07;;;;;;;17.95;12.35;;;15.20;99.90;;;;;;5052787;28;20523;-64
2022/03/28 12:50:50;;;;;;;17.60;13.27;;;15.30;99.90;;;;;;5052881;28;20033;-64